createdAt,value
2019-03-10T00:00:10.014Z,78.40
2019-03-10T00:02:39.406Z,78.60
2019-03-10T00:05:08.004Z,78.50
2019-03-10T00:07:35.894Z,78.90
2019-03-10T00:10:04.038Z,78.60
2019-03-10T00:12:31.962Z,78.60
2019-03-10T00:15:00.164Z,80.60
2019-03-10T00:17:28.212Z,80.70
2019-03-10T00:19:56.163Z,80.60
2019-03-10T00:22:24.111Z,80.70
2019-03-10T00:24:52.171Z,81.20
2019-03-10T00:27:20.130Z,81.30
2019-03-10T00:29:48.020Z,81.40
2019-03-10T00:32:16.941Z,81.30
2019-03-10T00:34:44.871Z,81.50
2019-03-10T00:37:12.806Z,81.50
2019-03-10T00:39:40.716Z,82.00
2019-03-10T00:42:08.656Z,83.30
2019-03-10T00:44:36.565Z,83.80
2019-03-10T00:47:04.527Z,84.60
2019-03-10T00:49:32.488Z,85.10
2019-03-10T00:52:00.384Z,83.60
2019-03-10T00:54:28.324Z,83.70
2019-03-10T00:56:56.600Z,84.20
2019-03-10T00:59:27.082Z,84.60
2019-03-10T01:01:55.037Z,85.30
2019-03-10T01:04:23.082Z,85.80
2019-03-10T01:06:51.858Z,86.30
2019-03-10T01:09:19.857Z,86.70
2019-03-10T01:11:47.759Z,87.10
2019-03-10T01:14:15.719Z,87.50
2019-03-10T01:16:43.757Z,88.50
2019-03-10T01:19:11.736Z,90.00
2019-03-10T01:21:39.681Z,90.50
2019-03-10T01:24:08.918Z,91.10
2019-03-10T01:26:36.856Z,91.00
2019-03-10T01:29:06.065Z,91.50
2019-03-10T01:31:34.036Z,91.50
2019-03-10T01:34:02.486Z,91.50
2019-03-10T01:36:30.431Z,92.10
2019-03-10T01:38:58.843Z,92.50
2019-03-10T01:41:26.834Z,92.80
2019-03-10T01:43:54.797Z,93.00
2019-03-10T01:46:22.717Z,93.30
2019-03-10T01:48:50.666Z,93.50
2019-03-10T01:51:18.582Z,93.50
2019-03-10T01:53:47.012Z,93.70
2019-03-10T01:56:14.972Z,93.90
2019-03-10T01:58:42.917Z,94.30
2019-03-10T02:01:10.844Z,94.20
2019-03-10T02:03:53.935Z,94.40
2019-03-10T02:06:21.860Z,94.40
2019-03-10T02:08:50.033Z,94.80
2019-03-10T02:11:18.197Z,95.10
2019-03-10T02:13:57.147Z,95.30
2019-03-10T02:16:27.057Z,95.90
2019-03-10T02:18:56.458Z,96.30
2019-03-10T02:21:24.586Z,96.60
2019-03-10T02:23:53.270Z,96.90
2019-03-10T02:26:21.152Z,97.20
2019-03-10T02:28:49.107Z,97.40
2019-03-10T02:31:17.191Z,98.10
2019-03-10T02:33:45.125Z,98.20
2019-03-10T02:36:13.071Z,98.40
2019-03-10T02:38:41.224Z,98.60
2019-03-10T02:41:09.364Z,99.20
2019-03-10T02:43:37.369Z,99.20
2019-03-10T02:46:05.349Z,99.50
2019-03-10T02:48:33.250Z,99.60
2019-03-10T02:51:01.179Z,99.90
2019-03-10T02:53:29.095Z,99.90
2019-03-10T02:56:00.866Z,99.90
2019-03-10T02:58:28.772Z,99.90
2019-03-10T03:00:57.354Z,99.90
2019-03-10T03:03:26.008Z,99.90
2019-03-10T03:05:54.129Z,99.90
2019-03-10T03:08:22.148Z,99.90
2019-03-10T03:10:50.122Z,99.90
2019-03-10T03:13:18.117Z,99.90
2019-03-10T03:15:46.077Z,99.90
2019-03-10T03:18:13.978Z,99.90
2019-03-10T03:20:43.103Z,99.90
2019-03-10T03:23:11.391Z,99.90
2019-03-10T03:28:56.645Z,99.90
2019-03-10T03:31:24.564Z,99.40
2019-03-10T03:36:51.061Z,98.50
2019-03-10T03:39:19.141Z,96.60
2019-03-10T03:42:11.845Z,95.90
2019-03-10T03:44:41.117Z,96.00
2019-03-10T03:47:09.170Z,96.90
2019-03-10T03:49:37.151Z,96.10
2019-03-10T03:52:16.025Z,96.80
2019-03-10T03:54:45.972Z,96.80
2019-03-10T03:57:13.887Z,97.00
2019-03-10T03:59:42.237Z,97.10
2019-03-10T04:02:39.067Z,96.50
2019-03-10T04:05:07.564Z,96.20
2019-03-10T04:07:35.478Z,96.50
2019-03-10T04:10:03.459Z,96.50
2019-03-10T04:12:32.396Z,96.40
2019-03-10T04:15:00.481Z,96.30
2019-03-10T04:17:28.499Z,95.70
2019-03-10T04:19:56.489Z,95.70
2019-03-10T04:22:25.665Z,95.70
2019-03-10T04:24:53.876Z,96.00
2019-03-10T04:27:22.297Z,95.40
2019-03-10T04:29:50.384Z,95.60
2019-03-10T04:32:18.342Z,95.50
2019-03-10T04:34:47.274Z,95.50
2019-03-10T04:37:16.617Z,95.60
2019-03-10T04:39:44.590Z,95.70
2019-03-10T04:42:12.838Z,95.70
2019-03-10T04:44:40.773Z,96.00
2019-03-10T04:47:08.773Z,95.70
2019-03-10T04:49:39.904Z,95.90
2019-03-10T04:52:07.834Z,95.90
2019-03-10T04:54:57.123Z,95.90
2019-03-10T04:57:25.351Z,96.00
2019-03-10T04:59:53.569Z,96.00
2019-03-10T05:02:21.666Z,96.00
2019-03-10T05:04:49.722Z,96.10
2019-03-10T05:07:17.627Z,96.30
2019-03-10T05:09:45.554Z,96.30
2019-03-10T05:12:13.479Z,96.50
2019-03-10T05:14:41.581Z,96.50
2019-03-10T05:17:09.528Z,96.70
2019-03-10T05:19:37.473Z,96.60
2019-03-10T05:22:05.450Z,96.70
2019-03-10T05:24:33.423Z,96.70
2019-03-10T05:27:02.504Z,97.30
2019-03-10T05:29:30.453Z,97.30
2019-03-10T05:31:58.413Z,97.70
2019-03-10T05:34:26.376Z,98.20
2019-03-10T05:36:54.309Z,98.40
2019-03-10T05:39:22.285Z,98.70
2019-03-10T05:41:50.247Z,99.00
2019-03-10T05:44:18.195Z,99.10
2019-03-10T05:46:46.098Z,99.10
2019-03-10T05:49:14.706Z,99.10
2019-03-10T05:51:42.615Z,99.00
2019-03-10T05:54:10.581Z,99.10
2019-03-10T05:56:57.576Z,99.20
2019-03-10T05:59:25.698Z,99.20
2019-03-10T06:01:53.647Z,99.30
2019-03-10T06:04:21.591Z,99.20
2019-03-10T06:06:49.838Z,99.30
2019-03-10T06:09:17.757Z,99.30
2019-03-10T06:11:46.101Z,99.30
2019-03-10T06:14:14.141Z,99.50
2019-03-10T06:16:42.198Z,99.60
2019-03-10T06:19:10.396Z,99.80
2019-03-10T06:21:38.497Z,99.90
2019-03-10T06:24:06.463Z,99.90
2019-03-10T06:26:34.421Z,99.90
2019-03-10T06:29:02.342Z,99.90
2019-03-10T06:31:30.277Z,99.90
2019-03-10T06:33:58.301Z,99.90
2019-03-10T06:36:26.380Z,99.90
2019-03-10T06:41:52.081Z,99.90
2019-03-10T06:44:21.118Z,99.90
2019-03-10T06:46:49.246Z,99.90
2019-03-10T06:49:17.184Z,99.90
2019-03-10T06:51:45.103Z,99.90
2019-03-10T06:54:13.295Z,99.90
2019-03-10T06:56:41.214Z,99.90
2019-03-10T06:59:09.116Z,99.90
2019-03-10T07:01:37.068Z,99.90
2019-03-10T07:04:05.013Z,99.90
2019-03-10T07:06:32.925Z,99.90
2019-03-10T07:09:00.876Z,99.90
2019-03-10T07:11:29.963Z,99.90
2019-03-10T07:13:58.950Z,99.90
2019-03-10T07:16:27.220Z,99.90
2019-03-10T07:18:55.145Z,99.90
2019-03-10T07:21:23.978Z,99.90
2019-03-10T07:23:52.260Z,99.90
2019-03-10T07:26:20.188Z,99.90
2019-03-10T07:29:06.924Z,99.90
2019-03-10T07:32:05.830Z,99.90
2019-03-10T07:34:55.535Z,99.90
2019-03-10T07:37:45.097Z,99.50
2019-03-10T07:40:31.841Z,99.70
2019-03-10T07:43:24.568Z,99.50
2019-03-10T07:45:58.790Z,99.40
2019-03-10T07:48:48.623Z,99.10
2019-03-10T07:51:38.476Z,99.10
2019-03-10T07:54:13.844Z,98.90
2019-03-10T07:57:12.707Z,98.80
2019-03-10T07:59:55.858Z,98.20
2019-03-10T08:02:42.610Z,97.60
2019-03-10T08:05:29.039Z,97.50
2019-03-10T08:08:13.261Z,96.80
2019-03-10T08:10:59.243Z,96.90
2019-03-10T08:13:36.088Z,96.80
2019-03-10T08:16:13.882Z,96.40
2019-03-10T08:19:03.624Z,96.20
2019-03-10T08:21:47.669Z,95.70
2019-03-10T08:24:52.558Z,94.50
2019-03-10T08:28:01.292Z,94.20
2019-03-10T08:30:36.687Z,93.90
2019-03-10T08:33:35.365Z,92.70
2019-03-10T08:36:27.835Z,91.80
2019-03-10T08:39:13.245Z,91.10
2019-03-10T08:41:46.643Z,90.20
2019-03-10T08:44:42.585Z,86.40
2019-03-10T08:47:27.831Z,82.30
2019-03-10T08:50:20.638Z,77.50
2019-03-10T08:52:54.343Z,76.30
2019-03-10T08:55:37.156Z,74.20
2019-03-10T08:58:20.506Z,73.50
2019-03-10T09:01:10.537Z,69.40
2019-03-10T09:04:00.277Z,68.00
2019-03-10T09:06:52.960Z,66.70
2019-03-10T09:09:51.998Z,63.50
2019-03-10T09:12:35.666Z,62.10
2019-03-10T09:15:14.539Z,62.20
2019-03-10T09:18:01.133Z,61.30
2019-03-10T09:20:36.167Z,61.60
2019-03-10T09:23:13.744Z,60.40
2019-03-10T09:25:58.068Z,59.70
2019-03-10T09:28:36.917Z,58.50
2019-03-10T09:31:36.062Z,57.90
2019-03-10T09:34:25.602Z,58.20
2019-03-10T09:37:03.447Z,56.80
2019-03-10T09:39:50.740Z,57.00
2019-03-10T09:42:32.049Z,56.60
2019-03-10T09:45:31.313Z,57.80
2019-03-10T09:48:22.045Z,58.60
2019-03-10T09:51:00.286Z,58.50
2019-03-10T09:54:02.472Z,58.70
2019-03-10T09:56:52.157Z,57.70
2019-03-10T09:59:36.200Z,57.50
2019-03-10T10:02:26.289Z,56.80
2019-03-10T10:05:16.109Z,57.30
2019-03-10T10:08:01.627Z,58.10
2019-03-10T10:10:38.139Z,59.30
2019-03-10T10:13:22.735Z,59.60
2019-03-10T10:16:21.895Z,59.10
2019-03-10T10:19:08.592Z,62.20
2019-03-10T10:22:01.683Z,65.00
2019-03-10T10:24:45.623Z,67.10
2019-03-10T10:27:38.137Z,67.90
2019-03-10T10:30:17.008Z,68.00
2019-03-10T10:33:03.789Z,67.90
2019-03-10T10:35:54.562Z,69.00
2019-03-10T10:38:59.677Z,70.80
2019-03-10T10:41:45.190Z,71.50
2019-03-10T10:44:19.713Z,73.70
2019-03-10T10:47:05.015Z,73.80
2019-03-10T10:49:51.745Z,72.70
2019-03-10T10:52:50.940Z,74.10
2019-03-10T10:55:40.865Z,75.90
2019-03-10T10:58:16.986Z,77.30
2019-03-10T11:01:02.677Z,78.00
2019-03-10T11:03:43.253Z,78.60
2019-03-10T11:06:19.941Z,79.80
2019-03-10T11:09:19.100Z,81.20
2019-03-10T11:12:11.715Z,82.60
2019-03-10T11:14:58.680Z,82.30
2019-03-10T11:17:44.157Z,83.20
2019-03-10T11:20:29.827Z,83.10
2019-03-10T11:23:29.229Z,84.50
2019-03-10T11:26:02.214Z,85.30
2019-03-10T11:29:01.560Z,85.20
2019-03-10T11:31:50.062Z,83.80
2019-03-10T11:34:45.647Z,83.60
2019-03-10T11:37:38.441Z,85.50
2019-03-10T11:40:18.821Z,85.00
2019-03-10T11:43:14.883Z,87.60
2019-03-10T11:46:10.848Z,88.30
2019-03-10T11:49:09.542Z,89.70
2019-03-10T11:51:56.287Z,90.40
2019-03-10T11:54:49.385Z,90.80
2019-03-10T11:57:26.178Z,91.60
2019-03-10T12:00:12.937Z,92.00
2019-03-10T12:02:59.771Z,92.70
2019-03-10T12:05:59.037Z,92.70
2019-03-10T12:08:45.775Z,92.70
2019-03-10T12:11:13.814Z,92.50
2019-03-10T12:13:41.871Z,92.70
2019-03-10T12:16:09.973Z,91.70
2019-03-10T12:18:37.898Z,91.00
2019-03-10T12:21:05.812Z,91.20
2019-03-10T12:23:33.731Z,91.90
2019-03-10T12:26:01.649Z,91.00
2019-03-10T12:28:29.676Z,90.90
2019-03-10T12:30:58.670Z,90.90
2019-03-10T12:33:26.775Z,90.90
2019-03-10T12:35:54.738Z,89.80
2019-03-10T12:38:22.672Z,90.50
2019-03-10T12:40:50.561Z,90.50
2019-03-10T12:43:18.680Z,87.10
2019-03-10T12:45:46.692Z,85.20
2019-03-10T12:48:14.630Z,83.90
2019-03-10T12:53:40.813Z,85.00
2019-03-10T12:56:08.746Z,84.80
2019-03-10T12:58:36.743Z,85.80
2019-03-10T13:01:06.454Z,85.40
2019-03-10T13:03:34.508Z,86.10
2019-03-10T13:06:02.460Z,86.40
2019-03-10T13:08:31.088Z,86.20
2019-03-10T13:10:59.294Z,87.10
2019-03-10T13:13:27.186Z,86.80
2019-03-10T13:15:55.133Z,88.10
2019-03-10T13:18:24.210Z,88.70
2019-03-10T13:20:52.177Z,88.50
2019-03-10T13:23:21.058Z,88.30
2019-03-10T13:25:48.991Z,88.60
2019-03-10T13:28:17.119Z,89.00
2019-03-10T13:30:45.125Z,88.00
2019-03-10T13:33:13.030Z,87.90
2019-03-10T13:35:40.925Z,88.10
2019-03-10T13:38:10.678Z,88.50
2019-03-10T13:40:38.476Z,88.30
2019-03-10T13:43:06.378Z,88.30
2019-03-10T13:45:34.314Z,88.40
2019-03-10T13:48:02.247Z,88.70
2019-03-10T13:50:30.197Z,88.30
2019-03-10T13:52:58.097Z,89.40
2019-03-10T13:55:26.198Z,89.90
2019-03-10T13:57:54.266Z,90.10
2019-03-10T14:00:24.210Z,89.90
2019-03-10T14:02:52.083Z,90.00
2019-03-10T14:05:20.023Z,90.00
2019-03-10T14:07:47.992Z,89.90
2019-03-10T14:10:15.938Z,90.00
2019-03-10T14:12:43.869Z,89.80
2019-03-10T14:15:12.153Z,89.40
2019-03-10T14:17:41.163Z,88.80
2019-03-10T14:20:09.492Z,89.30
2019-03-10T14:22:37.466Z,90.00
2019-03-10T14:25:06.115Z,90.30
2019-03-10T14:27:34.027Z,90.60
2019-03-10T14:30:02.030Z,90.80
2019-03-10T14:32:29.919Z,90.70
2019-03-10T14:34:57.906Z,90.60
2019-03-10T14:37:25.996Z,90.40
2019-03-10T14:39:53.964Z,89.70
2019-03-10T14:42:21.889Z,90.40
2019-03-10T14:44:49.816Z,90.30
2019-03-10T14:47:19.539Z,90.30
2019-03-10T14:49:47.364Z,89.50
2019-03-10T14:52:15.604Z,89.40
2019-03-10T14:54:43.548Z,88.10
2019-03-10T14:57:11.492Z,88.60
2019-03-10T14:59:40.500Z,89.60
2019-03-10T15:02:11.053Z,89.60
2019-03-10T15:04:38.971Z,90.20
2019-03-10T15:07:06.965Z,89.60
2019-03-10T15:09:34.933Z,89.30
2019-03-10T15:12:02.911Z,88.20
2019-03-10T15:14:31.040Z,87.30
2019-03-10T15:17:01.574Z,86.20
2019-03-10T15:19:28.878Z,84.60
2019-03-10T15:21:57.756Z,82.80
2019-03-10T15:24:25.775Z,80.10
2019-03-10T15:26:53.862Z,80.00
2019-03-10T15:29:21.988Z,80.80
2019-03-10T15:31:49.927Z,80.40
2019-03-10T15:34:17.892Z,81.60
2019-03-10T15:36:46.342Z,80.20
2019-03-10T15:39:14.399Z,80.20
2019-03-10T15:41:42.701Z,80.40
2019-03-10T15:44:10.698Z,79.70
2019-03-10T15:46:38.800Z,79.60
2019-03-10T15:49:06.706Z,78.20
2019-03-10T15:51:34.637Z,77.80
2019-03-10T15:54:11.163Z,77.40
2019-03-10T15:56:34.799Z,77.70
2019-03-10T15:59:02.718Z,76.30
2019-03-10T16:01:30.655Z,74.30
2019-03-10T16:03:58.592Z,73.40
2019-03-10T16:06:26.502Z,71.30
2019-03-10T16:08:54.469Z,69.90
2019-03-10T16:11:22.541Z,70.20
2019-03-10T16:13:50.477Z,71.20
2019-03-10T16:16:18.475Z,74.10
2019-03-10T16:18:47.925Z,76.80
2019-03-10T16:21:19.131Z,79.30
2019-03-10T16:23:55.209Z,81.50
2019-03-10T16:26:23.141Z,83.40
2019-03-10T16:28:52.393Z,85.30
2019-03-10T16:31:20.999Z,87.20
2019-03-10T16:33:48.939Z,88.60
2019-03-10T16:36:16.858Z,89.70
2019-03-10T16:38:45.624Z,90.60
2019-03-10T16:41:13.547Z,91.20
2019-03-10T16:43:41.497Z,91.70
2019-03-10T16:46:10.504Z,92.30
2019-03-10T16:48:38.820Z,92.70
2019-03-10T16:51:10.487Z,92.90
2019-03-10T16:53:45.911Z,93.20
2019-03-10T16:56:13.832Z,93.60
2019-03-10T16:58:43.116Z,94.20
2019-03-10T17:01:19.878Z,94.30
2019-03-10T17:03:47.972Z,95.10
2019-03-10T17:06:15.986Z,95.90
2019-03-10T17:08:43.945Z,96.40
2019-03-10T17:11:11.911Z,96.60
2019-03-10T17:13:39.914Z,97.40
2019-03-10T17:16:10.661Z,97.80
2019-03-10T17:18:38.598Z,98.40
2019-03-10T17:21:07.514Z,98.60
2019-03-10T17:23:35.761Z,98.80
2019-03-10T17:26:03.829Z,99.10
2019-03-10T17:28:31.753Z,99.20
2019-03-10T17:30:59.773Z,99.40
2019-03-10T17:33:27.739Z,99.60
2019-03-10T17:35:55.724Z,99.70
2019-03-10T17:38:24.347Z,99.50
2019-03-10T17:40:53.955Z,99.10
2019-03-10T17:43:21.918Z,98.40
2019-03-10T17:45:49.971Z,98.20
2019-03-10T17:48:17.995Z,98.10
2019-03-10T17:50:46.055Z,97.90
2019-03-10T17:53:14.076Z,97.70
2019-03-10T17:55:42.938Z,97.30
2019-03-10T17:58:10.918Z,97.10
2019-03-10T18:00:39.555Z,96.90
2019-03-10T18:03:07.640Z,96.50
2019-03-10T18:05:35.659Z,96.30
2019-03-10T18:08:06.018Z,96.40
2019-03-10T18:10:34.202Z,96.40
2019-03-10T18:13:02.064Z,96.50
2019-03-10T18:15:30.023Z,96.40
2019-03-10T18:17:58.275Z,96.70
2019-03-10T18:20:26.288Z,96.70
2019-03-10T18:22:54.584Z,97.00
2019-03-10T18:25:22.548Z,97.10
2019-03-10T18:27:50.516Z,97.10
2019-03-10T18:30:19.490Z,97.20
2019-03-10T18:32:48.221Z,97.00
2019-03-10T18:35:24.248Z,96.80
2019-03-10T18:37:52.275Z,96.30
2019-03-10T18:40:39.362Z,96.10
2019-03-10T18:43:08.715Z,95.90
2019-03-10T18:45:37.179Z,95.50
2019-03-10T18:48:05.423Z,95.10
2019-03-10T18:50:33.423Z,94.90
2019-03-10T18:53:01.333Z,94.30
2019-03-10T18:55:30.160Z,93.50
2019-03-10T18:57:59.836Z,93.60
2019-03-10T19:00:27.908Z,93.50
2019-03-10T19:02:56.073Z,93.30
2019-03-10T19:05:24.115Z,93.10
2019-03-10T19:07:52.260Z,92.70
2019-03-10T19:10:20.324Z,92.80
2019-03-10T19:12:55.275Z,92.90
2019-03-10T19:15:23.348Z,92.60
2019-03-10T19:17:54.307Z,92.60
2019-03-10T19:20:24.429Z,92.30
2019-03-10T19:22:59.712Z,92.50
2019-03-10T19:25:33.569Z,92.50
2019-03-10T19:28:01.643Z,92.40
2019-03-10T19:30:37.480Z,92.40
2019-03-10T19:33:24.386Z,92.30
2019-03-10T19:35:52.647Z,92.10
2019-03-10T19:38:25.818Z,92.00
2019-03-10T19:40:54.217Z,92.00
2019-03-10T19:43:28.439Z,91.90
2019-03-10T19:45:56.648Z,91.90
2019-03-10T19:48:24.726Z,91.90
2019-03-10T19:50:56.073Z,91.70
2019-03-10T19:53:24.277Z,92.00
2019-03-10T19:55:52.750Z,92.60
2019-03-10T19:58:20.827Z,92.80
2019-03-10T20:00:48.796Z,93.20
2019-03-10T20:03:18.922Z,94.30
2019-03-10T20:05:47.139Z,94.70
2019-03-10T20:08:15.213Z,95.90
2019-03-10T20:10:43.447Z,95.90
2019-03-10T20:13:20.807Z,95.80
2019-03-10T20:15:48.784Z,96.20
2019-03-10T20:18:23.780Z,96.60
2019-03-10T20:20:51.946Z,96.90
2019-03-10T20:23:20.115Z,97.00
2019-03-10T20:25:49.316Z,97.10
2019-03-10T20:28:17.290Z,97.20
2019-03-10T20:30:45.346Z,98.90
2019-03-10T20:33:13.632Z,99.70
2019-03-10T20:35:49.512Z,99.90
2019-03-10T20:38:17.583Z,99.90
2019-03-10T20:40:45.704Z,99.90
2019-03-10T20:43:14.394Z,99.90
2019-03-10T20:45:45.095Z,99.90
2019-03-10T20:48:14.447Z,99.90
2019-03-10T20:50:43.371Z,99.90
2019-03-10T20:53:13.324Z,99.90
2019-03-10T20:55:44.505Z,99.90
2019-03-10T20:58:12.814Z,99.90
2019-03-10T21:00:42.551Z,99.90
2019-03-10T21:03:11.251Z,99.90
2019-03-10T21:05:39.555Z,99.90
2019-03-10T21:08:07.562Z,99.90
2019-03-10T21:10:36.129Z,99.90
2019-03-10T21:13:05.517Z,99.90
2019-03-10T21:15:35.864Z,99.90
2019-03-10T21:18:04.395Z,99.90
2019-03-10T21:20:33.068Z,99.90
2019-03-10T21:23:01.972Z,99.90
2019-03-10T21:25:32.262Z,99.90
2019-03-10T21:28:00.885Z,99.90
2019-03-10T21:30:29.537Z,99.90
2019-03-10T21:33:05.381Z,99.90
2019-03-10T21:35:33.784Z,99.90
2019-03-10T21:38:01.973Z,99.90
2019-03-10T21:40:30.021Z,99.90
2019-03-10T21:46:17.419Z,99.90
2019-03-10T21:48:45.948Z,99.90
2019-03-10T21:51:14.199Z,99.90
2019-03-10T21:53:42.219Z,99.90
2019-03-10T21:56:10.271Z,99.90
2019-03-10T21:58:38.189Z,99.90
2019-03-10T22:01:06.217Z,99.90
2019-03-10T22:03:34.670Z,99.90
2019-03-10T22:06:02.844Z,99.90
2019-03-10T22:08:31.034Z,99.90
2019-03-10T22:10:59.703Z,99.90
2019-03-10T22:13:28.223Z,99.90
2019-03-10T22:15:56.245Z,99.90
2019-03-10T22:18:24.430Z,99.90
2019-03-10T22:20:52.523Z,99.90
2019-03-10T22:23:20.500Z,99.90
2019-03-10T22:25:48.369Z,99.90
2019-03-10T22:28:16.237Z,99.90
2019-03-10T22:30:44.197Z,99.90
2019-03-10T22:33:12.045Z,99.90
2019-03-10T22:35:39.929Z,99.90
2019-03-10T22:38:07.886Z,99.90
2019-03-10T22:40:36.022Z,99.90
2019-03-10T22:43:04.089Z,99.90
2019-03-10T22:45:32.171Z,99.90
2019-03-10T22:48:00.422Z,99.90
2019-03-10T22:50:28.387Z,99.90
2019-03-10T22:52:56.461Z,99.90
2019-03-10T22:55:24.537Z,99.90
2019-03-10T22:57:52.488Z,99.90
2019-03-10T23:00:20.761Z,99.90
2019-03-10T23:02:48.735Z,99.90
2019-03-10T23:05:16.698Z,99.90
2019-03-10T23:07:44.775Z,99.90
2019-03-10T23:10:14.879Z,99.90
2019-03-10T23:12:42.903Z,99.90
2019-03-10T23:15:10.851Z,99.90
2019-03-10T23:17:38.841Z,99.90
2019-03-10T23:20:06.811Z,99.90
2019-03-10T23:22:34.776Z,99.90
2019-03-10T23:25:02.726Z,99.90
2019-03-10T23:27:30.697Z,99.90
2019-03-10T23:29:58.677Z,99.90
2019-03-10T23:32:26.606Z,99.90
2019-03-10T23:34:54.609Z,99.90
2019-03-10T23:37:22.654Z,99.90
2019-03-10T23:39:50.591Z,99.90
2019-03-10T23:42:18.724Z,99.90
2019-03-10T23:44:46.647Z,99.90
2019-03-10T23:47:15.182Z,99.90
2019-03-10T23:49:43.293Z,99.90
2019-03-10T23:52:12.490Z,99.90
2019-03-10T23:54:42.788Z,99.90
2019-03-10T23:57:10.906Z,99.90
2019-03-10T23:59:38.941Z,99.90
